Emad El Hadary

Olheiro-Chefe - Ittihad
22 Fev 2028
Terça-feira
Processo

Personalidade

Adaptabilidade (18) Ambição (18) Controvérsia (8) Lealdade (16) Pressão (18) Profissionalismo (16) Espírito Esportivo (12) Temperamento (14)

Perfil

Estilo de Treinamento Democrático
Licença Nacional A
Determinação 7
Gestão de Pessoas 10
Motivação 8
Disciplina 10
Satisfação no Trabalho
100%
Fadiga
0%
Função Olheiro-Chefe
Salário 26.2K p/s
Contrato 14.03.2028

Desempenho

Comportamento Bom
Eficácia do Treinamento
35%
Desenvolvimento do Jogador
55%
Prevenção de Lesões
40%
Implementação Tática
30%

Eventos Recentes

Negociação de contrato iniciada agora
Participou de uma reunião de recrutamento agora
Recomendou um alvo de transferência agora
Negociação de contrato iniciada 7d atrás
Negociação de contrato iniciada 7d atrás
Negociação de contrato iniciada 7d atrás
Negociação de contrato iniciada 7d atrás
Negociação de contrato iniciada 7d atrás

Monitorando agora

164
Jogador Clube Status Habilidade Confiança Observado Última observação Último voto
Esteban Glellel Quilmes Negociando 128 / 125 40% 4 31.01.2028 -
Nader Alaa Ismaily Negociando 87 / 80 72% 1 31.01.2028 -
Yasser Al-Sultan Al-Mojzel Ativo 80 / 71 40% 1 31.01.2028 -
Ivan Lomaev Ufa Ativo 118 / 104 40% 1 31.01.2028 -
Ahmed Alaa Al Gaish Negociando 92 / 100 72% 1 24.01.2028 -
Khaled Tawhid Sioni Ativo 83 / 105 40% 6 02.01.2028 -
Agustín Mieres Atlanta Ativo 89 / 102 40% 2 02.01.2028 -
Luis Ingolotti Atlético Tucumán Ativo 122 / 120 40% 5 02.01.2028 -
Saeid Sadeghi Foolad Perdido 109 / 109 66% 1 01.01.2028 -
Saeid Taremi Foolad Negociando 96 / 97 90% 1 01.01.2028 -
Karim Karimi Siah Jamegan Negociando 109 / 113 67% 1 01.01.2028 -
Ifeanyi Emmanuel Niger Tornadoes Ativo 114 / 113 40% 2 31.12.2027 -
Emmanuel Gómez Riga Alvarado Ativo 114 / 135 40% 3 31.12.2027 -
Franco Rivasseau Patronato Ativo 112 / 107 40% 3 31.12.2027 -
Elias Hadaya Sandefjord Ativo 113 / 126 40% 2 30.12.2027 -
Divine Chidera Rangers International Ativo 109 / 94 40% 2 30.12.2027 -
Chisom Chiaha Barau Ativo 83 / 87 40% 10 29.12.2027 -
Bento Al-Nassr Ativo 144 / 154 40% 2 29.12.2027 -
Joaquín Bigo Tristán Suárez Ativo 105 / 104 40% 4 27.12.2027 -
Pedro González Cerro Largo Ativo 128 / 105 40% 1 27.12.2027 -
Facundo Vila Estudiantes Ativo 105 / 104 40% 3 26.12.2027 -
Francisco Salerno Defensores Unidos Ativo 112 / 127 40% 4 26.12.2027 -
Brian Opondo Kakamega Homeboyz Ativo 91 / 102 40% 2 26.12.2027 -
Abuchi Okeke Kano Pillars Ativo 106 / 90 40% 5 25.12.2027 -
Joe Whitworth Stockport County Ativo 114 / 114 40% 1 24.12.2027 -
Mauro Casoli Talleres Ativo 111 / 114 40% 2 23.12.2027 -
Nahuel Galardi Maipú Ativo 127 / 117 40% 4 23.12.2027 -
Bruno Antúnez Boston River Ativo 114 / 108 40% 4 23.12.2027 -
Kevin Ouru Mathare United Ativo 74 / 95 40% 4 22.12.2027 -
Alexandr Maximenko Rubin Ativo 131 / 133 40% 2 21.12.2027 -
Franco Carretero Deportivo Lara Ativo 103 / 103 40% 1 21.12.2027 -
Kelvin Ogunga Enyimba Ativo 105 / 100 40% 1 20.12.2027 -
Gastón Fernández Chacarita Juniors Ativo 105 / 87 40% 3 19.12.2027 -
Ali Ishaku Abia Warriors Ativo 104 / 88 40% 4 19.12.2027 -
Akpan Nsikak-Abong Kun Khalifat Ativo 82 / 98 40% 3 18.12.2027 -
Michael Atata Ikorodu City Ativo 89 / 96 40% 1 18.12.2027 -
George Wickens Lincoln City Ativo 136 / 110 40% 1 15.12.2027 -
John Amah Plateau United Ativo 98 / 93 40% 1 15.12.2027 -
Ikenna Benjamin Bayelsa United Ativo 81 / 75 40% 4 13.12.2027 -
Agustín Buffa Wanderers Ativo 91 / 112 40% 2 13.12.2027 -
Pontus Dahlberg Lillestrom Ativo 116 / 121 40% 3 10.12.2027 -
Francisco Castillo Llaneros Ativo 106 / 110 40% 2 09.12.2027 -
Biola Sabitu Remo Stars Ativo 109 / 92 40% 1 08.12.2027 -
Ivor Pandur Bolton Wanderers Ativo 123 / 145 40% 1 04.12.2027 -
Moisés Gallo Zulia Ativo 113 / 113 40% 2 03.12.2027 -
Rafael Sánchez Aragua Ativo 85 / 82 40% 1 02.12.2027 -
Ľubomír Belko Viking Ativo 133 / 139 40% 1 02.12.2027 -
Lautaro Petruchi Gimnasia y Esgrima Ativo 105 / 107 40% 4 01.12.2027 -
Diego Romero Universitario Ativo 121 / 127 40% 2 28.11.2027 -
Renzo Bacchia Racing Ativo 128 / 130 40% 2 25.11.2027 -
Nicolás Sumavil Platense Ativo 120 / 123 40% 1 24.11.2027 -
Mustapha Lawal Shooting Stars Ativo 112 / 106 40% 2 21.11.2027 -
Karim Fouad Aswan Ativo 122 / 122 42% 1 / 1m 17.11.2027 -
Francisco Coirolo Oriental Ativo 108 / 91 40% 1 17.11.2027 -
Leopold Wahlstedt Rosenborg Ativo 135 / 132 40% 3 16.11.2027 -
Sebastián Jaume Albion Ativo 99 / 122 40% 1 01.11.2027 -
Mostafa Marwan Masr El Makasa Ativo 115 / 101 40% 2 19.07.2027 -
Job Ochieng Real Sociedad Ativo 112 / 119 40% 1 19.07.2027 -
Robert Mizo Ashanti Gold Ativo 109 / 115 40% 1 19.07.2027 Mais informações
Mduduzi Shabalala Kaizer Chiefs Ativo 122 / 121 40% 4 12.07.2027 Observar
Sonny Carey Charlton Athletic Ativo 123 / 120 40% 1 12.07.2027 -
Cian Ashford Cardiff City Ativo 121 / 126 40% 1 12.07.2027 -
Jay Matete Milton Keynes Dons Ativo 104 / 116 40% 1 21.06.2027 -
Darlin Yongwa Norwich City Ativo 129 / 125 40% 1 21.06.2027 -
Josh Benson Rotherham United Ativo 108 / 95 40% 1 21.06.2027 -
Shota Shekiladze Akhmat Grozny Negociando 110 / 110 66% 1 01.06.2027 -
Mandla Erasmus SuperSport United Ativo 115 / 134 40% 5 31.05.2027 -
Eli King Gillingham Ativo 116 / 121 40% 1 31.05.2027 -
Lewis Freestone Stevenage Ativo 106 / 117 40% 1 31.05.2027 -
Tshepang Moremi Orlando Pirates Ativo 106 / 119 40% 6 29.05.2027 -
Milson Al Jazira Ativo 133 / 140 40% 3 29.05.2027 -
Ryan Glover Barnet Ativo 99 / 97 40% 1 29.05.2027 -
Matheus Gonçalves Al-Ahli Ativo 124 / 136 40% 3 27.05.2027 -
Joseph Hungbo Wigan Athletic Ativo 110 / 121 40% 3 27.05.2027 -
Bernat Guiu Virtus Entella Ativo 115 / 114 40% 2 26.05.2027 -
Jayden Nelson Bolton Wanderers Ativo 119 / 118 40% 1 26.05.2027 -
Paddy Lane Reading Ativo 120 / 93 40% 1 26.05.2027 -
Mohau Nkota Al-Ettifaq Ativo 122 / 124 40% 2 25.05.2027 -
Xavier Amaechi Plymouth Argyle Ativo 107 / 94 40% 1 25.05.2027 -
James Morris Leyton Orient Ativo 115 / 126 40% 1 25.05.2027 -
Mohamed Simakan Al-Nassr Ativo 135 / 138 40% 1 25.05.2027 -
Justin Devenny Stoke City Ativo 131 / 133 40% 1 25.05.2027 -
Serginho Al Wasl Ativo 139 / 129 40% 4 22.05.2027 -
Pelle Mattsson Norwich City Ativo 116 / 135 40% 1 22.05.2027 -
Adam Gnezda Čerin Al Wahda Ativo 122 / 130 40% 3 21.05.2027 -
Mohamed Zoungrana MC Alger Ativo 112 / 121 40% 3 21.05.2027 -
Zak Swanson Bradford City Ativo 126 / 129 40% 3 21.05.2027 -
Dhari Al-Anazi Al-Shabab Ativo 107 / 106 40% 1 21.05.2027 -
Jacques Ekomié Wrexham Ativo 126 / 128 40% 3 19.05.2027 -
Rio Adébísí Peterborough United Ativo 90 / 82 40% 1 19.05.2027 -
Udoka Godwin-Malife Burton Albion Ativo 113 / 116 40% 1 19.05.2027 -
Jack Diamond Stockport County Ativo 112 / 127 40% 4 17.05.2027 -
Jason Knight Bristol City Ativo 118 / 128 40% 1 17.05.2027 -
Sam Bell Bristol City Ativo 115 / 115 40% 1 17.05.2027 -
Ethan Williams Peterborough United Ativo 108 / 111 40% 2 14.05.2027 -
David Turnbull Cardiff City Ativo 119 / 107 40% 3 14.05.2027 -
Sam Mather Bromley Ativo 99 / 92 40% 2 14.05.2027 -
Kwame Poku Queens Park Rangers Ativo 113 / 139 40% 2 13.05.2027 -
Luan Pereira Sharjah Ativo 117 / 125 40% 2 12.05.2027 -
Jack Moylan Lincoln City Ativo 105 / 124 40% 1 11.05.2027 -
Eom Ji-Sung Swansea City Ativo 114 / 102 40% 1 11.05.2027 -
Harry Leonard Peterborough United Ativo 112 / 116 40% 2 10.05.2027 -
Lewis Bate Stockport County Ativo 113 / 105 40% 1 09.05.2027 -
Michele Ambrosini AlbinoLeffe Ativo 114 / 108 40% 1 09.05.2027 -
Akin Odimayo Crawley Town Ativo 103 / 88 40% 1 09.05.2027 -
Matthew Sorinola Newport County Ativo 101 / 95 40% 1 09.05.2027 -
Kyle John Port Vale Ativo 118 / 116 40% 1 09.05.2027 -
Ollie Tanner Cardiff City Ativo 109 / 112 40% 4 07.05.2027 -
Jack Currie Oxford United Ativo 117 / 136 40% 2 07.05.2027 -
Aboubacar Doumbia Al-Orobah Ativo 103 / 91 40% 1 07.05.2027 -
Ilario Monterisi Frosinone Ativo 132 / 127 40% 2 04.05.2027 -
Charlie Webster Burton Albion Ativo 118 / 99 40% 1 04.05.2027 -
Mathias Jørgensen Blackburn Rovers Ativo 108 / 128 40% 2 03.05.2027 -
Josh Edwards Charlton Athletic Ativo 111 / 125 40% 1 03.05.2027 -
Mohammad Alsalkhadi Damac Ativo 100 / 116 40% 4 02.05.2027 -
Tyreece Campbell Charlton Athletic Ativo 113 / 113 40% 2 30.04.2027 -
Williams Manyama SuperSport United Ativo 120 / 130 40% 2 27.04.2027 -
Ahmed Al-Nakhli Al-Hazem Ativo 104 / 112 40% 3 25.04.2027 -
Oswin Appollis Orlando Pirates Ativo 114 / 117 40% 3 25.04.2027 -
Andrea Carboni Monza Ativo 123 / 130 40% 1 25.04.2027 -
Joel Bagan Cardiff City Ativo 119 / 102 40% 1 25.04.2027 -
Brian De Keersmaecker Oxford United Ativo 131 / 138 40% 1 23.04.2027 -
Zeidane Inoussa Swansea City Ativo 115 / 134 40% 1 23.04.2027 -
David Petrović Al Nasr Ativo 108 / 130 40% 2 22.04.2027 -
Adel Bouzida Paradou Ativo 104 / 103 40% 1 22.04.2027 -
Armando Dobra Chesterfield Ativo 98 / 112 40% 1 22.04.2027 -
Christos Mouzakitis Hull City Ativo 140 / 130 40% 1 22.04.2027 -
Jay McGrath Doncaster Rovers Ativo 96 / 110 40% 1 20.04.2027 -
Facundo Kruspzky Al Wahda Ativo 118 / 113 40% 2 17.04.2027 -
Daniel Kyerewaa Reading Ativo 108 / 107 40% 3 16.04.2027 -
Brahima Diarra Al Wahda Ativo 108 / 122 40% 1 16.04.2027 -
Richard Koné Queens Park Rangers Ativo 113 / 132 40% 1 15.04.2027 -
Armando Shashoua Gillingham Ativo 103 / 93 40% 1 14.04.2027 -
Ibrahim Bayesh Al Dhafra Ativo 114 / 107 40% 2 11.04.2027 -
Bonheur Mugisha Al-Hazem Ativo 101 / 109 40% 2 10.04.2027 -
Ethan Bristow Tranmere Rovers Ativo 99 / 96 40% 1 10.04.2027 -
Michael Baidoo Plymouth Argyle Ativo 127 / 132 40% 1 10.04.2027 -
Derrick Fordjour Medeama Ativo 101 / 83 40% 1 10.04.2027 -
Haitham Asiri Al-Qadisiyah Ativo 120 / 99 40% 1 10.04.2027 -
Filippo Ranocchia Palermo Ativo 127 / 145 40% 1 09.04.2027 -
Nathan Moriah-Welsh Mansfield Town Ativo 119 / 99 40% 1 08.04.2027 -
Alex Robertson Cardiff City Ativo 116 / 137 40% 1 05.04.2027 -
Christopher Bonsu Baah Al-Qadisiyah Ativo 119 / 132 40% 1 05.04.2027 -
Pedro Malheiro Al Wasl Ativo 139 / 129 40% 1 04.04.2027 -
Hakim Sulemana Medeama Ativo 95 / 89 40% 1 01.04.2027 -
Siyanda Ndlovu Bloemfontein Celtic Ativo 128 / 133 40% 1 31.03.2027 -
Derensili Sanches Fernandes Huddersfield Town Ativo 123 / 130 40% 1 29.03.2027 -
Sulaiman Hazazi Al-Riyadh Ativo 112 / 112 40% 1 29.03.2027 -
Mahmoud Khalfan Al Shabab Ativo 134 / 115 40% 1 28.03.2027 -
Dion Lopy Al-Ittihad Ativo 132 / 137 40% 1 27.03.2027 -
Ali Saleh Sharjah Ativo 112 / 103 40% 1 25.03.2027 -
Abdulmalik Al-Jaber Al-Nassr Ativo 100 / 119 40% 1 25.03.2027 -
Aiman Yahya Al-Nassr Ativo 117 / 128 40% 1 24.03.2027 -
Josh Tymon Swansea City Ativo 129 / 107 40% 1 24.03.2027 -
Walid Omar Al Shaab Ativo 104 / 107 40% 1 17.03.2027 -
Mohammed Abu Al-Shamat Al-Qadisiyah Ativo 132 / 139 40% 1 13.03.2027 -
Mihai Lixandru Al-Fateh Ativo 129 / 108 40% 1 11.03.2027 -
Phoenix Patterson Stevenage Ativo 121 / 118 40% 1 10.03.2027 -
Brahian Palacios Al Wasl Ativo 128 / 127 40% 2 09.03.2027 -
Moussa N'Diaye Al Nasr Ativo 113 / 134 40% 1 07.03.2027 -
Saeed Baattia Al-Fateh Ativo 106 / 115 40% 1 01.03.2027 -
Leandrinho Sharjah Ativo 103 / 107 40% 1 01.03.2027 -
Amr Hossam Wadi Degla Ativo 83 / 78 62% 1 10.08.2026 Aprovar
Youssef En-Nesyri Al-Ittihad Ativo 124 / 124 40% 1 01.08.2026 -